createdAt,value
2018-09-21T09:11:31.412Z,14.99
2018-09-21T09:12:30.779Z,15.11
2018-09-21T09:13:31.304Z,14.97
2018-09-21T09:14:30.868Z,15.05
2018-09-21T09:15:31.235Z,15.10
2018-09-21T09:16:30.718Z,15.12
2018-09-21T09:17:31.196Z,15.11
2018-09-21T09:18:30.271Z,15.03
2018-09-21T09:19:31.166Z,15.04
2018-09-21T09:20:31.478Z,15.11
2018-09-21T09:21:31.369Z,15.10
2018-09-21T09:22:31.138Z,15.08
2018-09-21T09:23:30.460Z,14.99
2018-09-21T09:24:30.951Z,15.05
2018-09-21T09:25:29.646Z,14.93
2018-09-21T09:26:29.684Z,14.99
2018-09-21T09:27:31.419Z,15.04
2018-09-21T09:28:28.979Z,15.03
2018-09-21T09:29:28.747Z,15.04
2018-09-21T09:30:28.810Z,14.96
2018-09-21T09:31:28.696Z,15.07
2018-09-21T09:32:28.655Z,15.01
2018-09-21T09:33:28.640Z,15.03
2018-09-21T09:34:28.612Z,15.05
2018-09-21T09:35:28.568Z,14.95
2018-09-21T09:36:28.550Z,14.97
2018-09-21T09:37:28.531Z,15.04
2018-09-21T09:38:28.485Z,14.97
2018-09-21T09:39:28.493Z,14.99
2018-09-21T09:40:28.436Z,15.05
2018-09-21T09:41:28.474Z,15.01
2018-09-21T09:42:28.363Z,15.15
2018-09-21T09:43:28.388Z,15.10
2018-09-21T09:44:28.310Z,15.11
2018-09-21T09:45:28.280Z,15.12
2018-09-21T09:46:28.251Z,15.14
2018-09-21T09:47:28.255Z,15.20
2018-09-21T09:48:28.270Z,15.05
2018-09-21T09:49:28.162Z,15.22
2018-09-21T09:50:28.171Z,15.29
2018-09-21T09:51:28.231Z,15.19
2018-09-21T09:52:28.096Z,15.10
2018-09-21T09:53:28.091Z,15.30
2018-09-21T09:54:28.079Z,15.26
2018-09-21T09:55:27.987Z,15.41
2018-09-21T09:56:27.992Z,15.27
2018-09-21T09:57:27.935Z,15.27
2018-09-21T09:58:28.003Z,15.40
2018-09-21T09:59:27.961Z,15.41
2018-09-21T10:00:27.851Z,15.41
2018-09-21T10:01:27.811Z,15.50
2018-09-21T10:02:27.811Z,15.36
2018-09-21T10:03:27.769Z,15.35
2018-09-21T10:04:27.722Z,15.38
2018-09-21T10:05:27.708Z,15.44
2018-09-21T10:06:27.669Z,15.33
2018-09-21T10:07:27.704Z,15.48
2018-09-21T10:08:27.619Z,15.47
2018-09-21T10:09:27.646Z,15.45
2018-09-21T10:10:27.653Z,15.51
2018-09-21T10:11:27.616Z,15.62
2018-09-21T10:12:27.499Z,15.63
2018-09-21T10:13:27.528Z,15.65
2018-09-21T10:14:27.489Z,15.62
2018-09-21T10:15:27.406Z,15.69
2018-09-21T10:16:27.589Z,15.62
2018-09-21T10:17:27.467Z,15.60
2018-09-21T10:18:27.413Z,15.63
2018-09-21T10:19:27.484Z,15.65
2018-09-21T10:20:27.439Z,15.84
2018-09-21T10:21:27.543Z,15.70
2018-09-21T10:22:27.382Z,15.83
2018-09-21T10:23:27.415Z,15.87
2018-09-21T10:24:27.150Z,15.98
2018-09-21T10:25:27.332Z,16.14
2018-09-21T10:26:27.244Z,16.09
2018-09-21T10:27:27.167Z,16.06
2018-09-21T10:28:27.549Z,16.03
2018-09-21T10:29:27.007Z,16.09
2018-09-21T10:30:27.098Z,16.08
2018-09-21T10:31:27.028Z,16.06
2018-09-21T10:32:26.951Z,16.13
2018-09-21T10:33:26.958Z,16.05
2018-09-21T10:34:27.300Z,16.00
2018-09-21T10:35:26.903Z,16.06
2018-09-21T10:36:26.849Z,16.10
2018-09-21T10:37:26.936Z,15.99
2018-09-21T10:38:26.756Z,15.93
2018-09-21T10:39:26.825Z,16.08
2018-09-21T10:40:26.843Z,16.13
2018-09-21T10:41:26.667Z,16.22
2018-09-21T10:42:26.854Z,16.24
2018-09-21T10:43:26.932Z,16.21
2018-09-21T10:44:26.592Z,16.22
2018-09-21T10:45:26.785Z,16.29
2018-09-21T10:46:26.676Z,16.39
2018-09-21T10:47:26.489Z,16.33
2018-09-21T10:48:26.692Z,16.43
2018-09-21T10:49:26.483Z,16.44
2018-09-21T10:50:26.579Z,16.43
2018-09-21T10:51:26.468Z,16.54
2018-09-21T10:52:26.570Z,16.43
2018-09-21T10:53:26.354Z,16.39
2018-09-21T10:54:26.431Z,16.44
2018-09-21T10:55:26.563Z,16.54
2018-09-21T10:56:26.406Z,16.47
2018-09-21T10:57:26.432Z,16.55
2018-09-21T10:58:26.237Z,16.61
2018-09-21T10:59:26.284Z,16.58
2018-09-21T11:00:26.132Z,16.49
2018-09-21T11:01:26.139Z,16.62
2018-09-21T11:02:26.077Z,16.64
2018-09-21T11:03:26.061Z,16.58
2018-09-21T11:04:26.104Z,16.55
2018-09-21T11:05:26.155Z,16.58
2018-09-21T11:06:25.961Z,16.52
2018-09-21T11:07:25.931Z,16.61
2018-09-21T11:08:25.907Z,16.64
2018-09-21T11:09:25.886Z,16.67
2018-09-21T11:10:25.957Z,16.64
2018-09-21T11:11:25.813Z,16.65
2018-09-21T11:12:25.824Z,16.69
2018-09-21T11:13:25.760Z,16.65
2018-09-21T11:14:25.813Z,16.62
2018-09-21T11:15:25.712Z,16.62
2018-09-21T11:16:25.790Z,16.55
2018-09-21T11:17:25.759Z,16.61
2018-09-21T11:18:25.753Z,16.62
2018-09-21T11:19:25.596Z,16.54
2018-09-21T11:20:25.643Z,16.65
2018-09-21T11:21:25.638Z,16.61
2018-09-21T11:22:25.509Z,16.54
2018-09-21T11:23:25.503Z,16.64
2018-09-21T11:24:25.450Z,16.64
2018-09-21T11:25:25.484Z,16.58
2018-09-21T11:26:25.387Z,16.69
2018-09-21T11:27:25.365Z,16.87
2018-09-21T11:28:25.458Z,16.92
2018-09-21T11:29:25.301Z,16.87
2018-09-21T11:30:25.305Z,17.01
2018-09-21T11:31:44.859Z,17.07
2018-09-21T11:35:15.946Z,17.34
2018-09-21T11:36:15.091Z,17.62
2018-09-21T11:38:21.852Z,17.71
2018-09-21T11:39:21.385Z,17.63
2018-09-21T11:47:16.966Z,18.13
2018-09-21T11:48:18.438Z,18.12
2018-09-21T11:49:17.741Z,18.20
2018-09-21T11:50:16.296Z,18.24
2018-09-21T11:51:16.639Z,18.33
2018-09-21T11:52:17.980Z,18.36
2018-09-21T11:53:19.713Z,18.38
2018-09-21T11:54:20.110Z,18.21
2018-09-21T11:55:16.610Z,18.23
2018-09-21T12:02:06.213Z,18.39
2018-09-21T12:03:06.566Z,18.43
2018-09-21T12:05:23.693Z,18.41
2018-09-21T12:06:23.035Z,18.43
2018-09-21T12:14:11.868Z,18.20
2018-09-21T12:15:11.691Z,18.23
2018-09-21T12:17:14.755Z,18.12
2018-09-21T12:18:14.434Z,18.15
2018-09-21T12:19:13.920Z,18.18
2018-09-21T12:20:13.728Z,18.09
2018-09-21T12:21:14.465Z,18.09
2018-09-21T12:22:13.404Z,18.13
2018-09-21T12:23:15.238Z,18.09
2018-09-21T12:24:14.309Z,18.13
2018-09-21T12:25:13.915Z,18.13
2018-09-21T12:26:14.294Z,18.13
2018-09-21T12:27:14.207Z,18.15
2018-09-21T12:28:42.083Z,18.12
2018-09-21T12:31:57.764Z,18.30
2018-09-21T12:32:59.241Z,18.34
2018-09-21T12:38:44.354Z,18.36
2018-09-21T12:43:46.384Z,18.28
2018-09-21T12:44:26.050Z,18.45
2018-09-21T12:49:48.319Z,18.63
2018-09-21T12:50:46.897Z,18.70
2018-09-21T12:51:49.616Z,18.78
2018-09-21T12:59:22.781Z,18.68
2018-09-21T13:00:22.288Z,18.94
2018-09-21T13:59:48.315Z,22.33
2018-09-21T14:00:47.240Z,22.15
2018-09-21T14:07:00.193Z,22.67
2018-09-21T14:22:33.751Z,20.93
2018-09-21T15:15:02.958Z,23.15
2018-09-21T15:19:29.329Z,24.03
2018-09-21T15:45:35.341Z,20.26
2018-09-21T16:01:50.255Z,19.74
2018-09-21T16:02:44.202Z,19.77
2018-09-21T16:03:42.350Z,19.47
2018-09-21T16:08:14.651Z,20.71
2018-09-21T16:09:13.058Z,20.74
2018-09-21T16:12:09.713Z,21.82
2018-09-21T16:18:24.054Z,21.22
2018-09-21T16:19:15.118Z,21.29
2018-09-21T16:21:19.985Z,21.44
2018-09-21T16:28:33.717Z,20.95
2018-09-21T16:29:32.504Z,20.30
2018-09-21T16:36:26.808Z,19.20
2018-09-21T16:37:24.569Z,19.27
2018-09-21T16:39:26.141Z,19.22
2018-09-21T16:40:25.042Z,19.09
2018-09-21T16:42:31.315Z,18.97
2018-09-21T16:43:31.037Z,18.96
2018-09-21T16:45:38.385Z,18.89
2018-09-21T16:46:34.996Z,18.81
2018-09-21T16:47:35.402Z,18.63
2018-09-21T16:48:33.732Z,18.54
2018-09-21T16:49:33.332Z,18.52
2018-09-21T16:50:34.112Z,18.57
2018-09-21T16:51:33.095Z,18.54
2018-09-21T16:52:33.321Z,18.38
2018-09-21T16:53:35.424Z,18.49
2018-09-21T16:54:33.601Z,18.49
2018-09-21T16:58:29.510Z,18.30
2018-09-21T16:59:27.781Z,18.30
2018-09-21T17:00:28.883Z,18.31
2018-09-21T17:03:07.277Z,18.18
2018-09-21T17:04:05.679Z,18.18
2018-09-21T17:07:55.763Z,18.17
2018-09-21T17:08:56.654Z,18.17
2018-09-21T17:09:57.992Z,18.15
2018-09-21T17:10:56.312Z,18.17
2018-09-21T17:11:58.140Z,18.08
2018-09-21T17:19:30.737Z,17.86
2018-09-21T17:20:30.397Z,17.86
2018-09-21T17:35:27.298Z,17.52
2018-09-21T17:36:28.260Z,17.47
2018-09-21T17:44:09.182Z,17.47
2018-09-21T17:45:08.106Z,17.43
2018-09-21T17:46:09.690Z,17.43
2018-09-21T17:47:08.866Z,17.35
2018-09-21T17:51:48.327Z,17.35
2018-09-21T18:19:00.474Z,17.35
